createdAt,value
2019-04-28T00:02:01.306Z,20.60
2019-04-28T00:04:34.179Z,16.30
2019-04-28T00:07:06.538Z,16.17
2019-04-28T00:09:38.525Z,19.87
2019-04-28T00:12:11.492Z,16.43
2019-04-28T00:14:43.879Z,15.30
2019-04-28T00:17:16.230Z,15.47
2019-04-28T00:19:48.535Z,16.40
2019-04-28T00:22:38.985Z,17.30
2019-04-28T00:25:24.185Z,16.27
2019-04-28T00:27:56.338Z,17.87
2019-04-28T00:30:28.595Z,16.23
2019-04-28T00:33:01.777Z,17.27
2019-04-28T00:35:35.278Z,17.07
2019-04-28T00:38:07.566Z,18.63
2019-04-28T00:40:41.261Z,20.67
2019-04-28T00:43:13.648Z,18.13
2019-04-28T00:45:45.805Z,18.73
2019-04-28T00:48:18.424Z,17.33
2019-04-28T00:50:51.869Z,19.30
2019-04-28T00:53:24.266Z,17.37
2019-04-28T00:55:56.313Z,18.70
2019-04-28T00:58:28.490Z,17.77
2019-04-28T01:01:03.668Z,18.20
2019-04-28T01:03:35.725Z,17.10
2019-04-28T01:06:07.866Z,15.67
2019-04-28T01:08:41.949Z,16.60
2019-04-28T01:11:14.087Z,15.73
2019-04-28T01:13:46.393Z,14.90
2019-04-28T01:16:40.201Z,13.70
2019-04-28T01:19:20.215Z,13.90
2019-04-28T01:22:13.556Z,14.00
2019-04-28T01:24:46.063Z,17.40
2019-04-28T01:27:50.514Z,14.27
2019-04-28T01:30:53.081Z,16.17
2019-04-28T01:33:36.786Z,13.73
2019-04-28T01:36:10.354Z,14.03
2019-04-28T01:38:42.717Z,14.20
2019-04-28T01:41:14.773Z,14.77
2019-04-28T01:43:46.891Z,15.47
2019-04-28T01:46:19.872Z,14.13
2019-04-28T01:48:52.195Z,16.97
2019-04-28T01:51:24.379Z,14.80
2019-04-28T01:53:56.716Z,15.90
2019-04-28T01:56:30.313Z,15.50
2019-04-28T01:59:02.907Z,15.07
2019-04-28T02:01:35.099Z,16.07
2019-04-28T02:04:07.747Z,13.47
2019-04-28T02:06:40.023Z,13.97
2019-04-28T02:09:13.100Z,13.17
2019-04-28T02:11:45.310Z,14.00
2019-04-28T02:14:17.327Z,13.60
2019-04-28T02:16:50.393Z,14.00
2019-04-28T02:19:23.670Z,13.03
2019-04-28T02:22:03.451Z,13.13
2019-04-28T02:24:36.020Z,13.03
2019-04-28T02:27:10.405Z,12.07
2019-04-28T02:29:42.277Z,12.93
2019-04-28T02:32:14.273Z,13.77
2019-04-28T02:34:46.728Z,14.83
2019-04-28T02:37:20.642Z,11.83
2019-04-28T02:39:53.079Z,13.07
2019-04-28T02:42:25.278Z,12.30
2019-04-28T02:45:00.291Z,13.33
2019-04-28T02:47:34.111Z,14.60
2019-04-28T02:50:30.493Z,11.80
2019-04-28T02:53:12.833Z,12.10
2019-04-28T02:55:45.201Z,11.60
2019-04-28T02:58:17.129Z,12.43
2019-04-28T03:01:02.591Z,12.57
2019-04-28T03:03:23.934Z,11.47
2019-04-28T03:05:56.177Z,13.87
2019-04-28T03:08:30.609Z,11.13
2019-04-28T03:11:03.188Z,12.43
2019-04-28T03:13:36.887Z,12.50
2019-04-28T03:16:10.832Z,12.93
2019-04-28T03:18:42.783Z,14.80
2019-04-28T03:21:14.952Z,14.57
2019-04-28T03:23:47.190Z,13.07
2019-04-28T03:26:35.669Z,13.63
2019-04-28T03:29:30.494Z,12.53
2019-04-28T03:32:43.865Z,13.03
2019-04-28T03:35:05.364Z,12.90
2019-04-28T03:37:37.508Z,12.87
2019-04-28T03:40:11.498Z,15.20
2019-04-28T03:42:43.943Z,14.53
2019-04-28T03:45:22.292Z,14.80
2019-04-28T03:47:54.482Z,11.90
2019-04-28T03:50:26.754Z,11.93
2019-04-28T03:53:00.898Z,13.00
2019-04-28T03:55:34.974Z,11.97
2019-04-28T03:58:06.393Z,11.33
2019-04-28T04:00:40.839Z,12.27
2019-04-28T04:03:12.404Z,11.67
2019-04-28T04:05:44.666Z,10.60
2019-04-28T04:08:16.758Z,10.97
2019-04-28T04:11:10.609Z,10.37
2019-04-28T04:13:46.575Z,9.40
2019-04-28T04:16:40.671Z,11.63
2019-04-28T04:19:13.663Z,10.50
2019-04-28T04:21:45.563Z,9.87
2019-04-28T04:24:20.518Z,8.80
2019-04-28T04:26:52.382Z,9.27
2019-04-28T04:29:24.210Z,8.60
2019-04-28T04:32:10.087Z,8.97
2019-04-28T04:34:30.281Z,9.10
2019-04-28T04:37:02.690Z,8.60
2019-04-28T04:39:34.898Z,8.97
2019-04-28T04:42:07.266Z,9.67
2019-04-28T04:44:41.564Z,7.63
2019-04-28T04:47:12.995Z,8.00
2019-04-28T04:49:44.902Z,8.00
2019-04-28T04:52:16.910Z,8.17
2019-04-28T04:54:51.051Z,7.10
2019-04-28T04:57:22.999Z,7.63
2019-04-28T04:59:55.099Z,8.77
2019-04-28T05:02:51.738Z,9.47
2019-04-28T05:05:40.818Z,7.33
2019-04-28T05:08:15.483Z,7.07
2019-04-28T05:10:46.827Z,7.97
2019-04-28T05:13:20.069Z,6.33
2019-04-28T05:15:52.634Z,9.80
2019-04-28T05:18:24.764Z,7.63
2019-04-28T05:20:56.898Z,6.97
2019-04-28T05:23:39.873Z,7.77
2019-04-28T05:26:11.721Z,9.40
2019-04-28T05:28:50.459Z,9.40
2019-04-28T05:31:23.018Z,7.53
2019-04-28T05:33:51.922Z,9.73
2019-04-28T05:36:24.533Z,7.73
2019-04-28T05:38:56.477Z,8.10
2019-04-28T05:41:29.569Z,8.43
2019-04-28T05:44:01.908Z,7.43
2019-04-28T05:46:34.148Z,6.77
2019-04-28T05:49:29.706Z,9.70
2019-04-28T05:52:09.639Z,9.13
2019-04-28T05:54:51.801Z,7.93
2019-04-28T05:57:33.320Z,6.70
2019-04-28T06:00:31.190Z,6.50
2019-04-28T06:03:07.015Z,6.20
2019-04-28T06:05:39.590Z,6.80
2019-04-28T06:08:40.713Z,6.90
2019-04-28T06:11:33.823Z,7.63
2019-04-28T06:14:06.316Z,5.60
2019-04-28T06:16:40.429Z,6.23
2019-04-28T06:19:13.347Z,5.90
2019-04-28T06:21:45.383Z,6.53
2019-04-28T06:24:17.399Z,5.83
2019-04-28T06:26:49.554Z,5.87
2019-04-28T06:29:21.953Z,7.53
2019-04-28T06:31:53.951Z,7.23
2019-04-28T06:34:26.189Z,8.57
2019-04-28T06:36:58.370Z,6.53
2019-04-28T06:39:30.425Z,6.83
2019-04-28T06:42:02.526Z,8.53
2019-04-28T06:44:34.619Z,9.57
2019-04-28T06:47:07.790Z,4.70
2019-04-28T06:49:40.056Z,5.60
2019-04-28T06:52:12.834Z,5.87
2019-04-28T06:54:45.282Z,4.30
2019-04-28T06:57:17.257Z,7.63
2019-04-28T06:59:49.321Z,5.67
2019-04-28T07:02:21.637Z,6.13
2019-04-28T07:05:01.726Z,4.27
2019-04-28T07:07:27.678Z,7.77
2019-04-28T07:09:59.918Z,7.90
2019-04-28T07:12:31.799Z,5.37
2019-04-28T07:15:04.068Z,7.20
2019-04-28T07:17:36.387Z,9.03
2019-04-28T07:20:33.729Z,6.30
2019-04-28T07:23:09.473Z,4.73
2019-04-28T07:25:41.754Z,7.13
2019-04-28T07:28:13.901Z,10.07
2019-04-28T07:30:46.166Z,9.00
2019-04-28T07:33:18.129Z,8.77
2019-04-28T07:35:50.403Z,8.77
2019-04-28T07:38:22.388Z,9.37
2019-04-28T07:40:54.748Z,7.80
2019-04-28T07:43:26.938Z,15.47
2019-04-28T07:45:59.213Z,7.70
2019-04-28T07:48:31.641Z,20.63
2019-04-28T07:51:04.825Z,15.67
2019-04-28T07:54:05.351Z,8.57
2019-04-28T07:56:37.558Z,10.63
2019-04-28T07:59:09.738Z,10.00
2019-04-28T08:01:41.756Z,8.93
2019-04-28T08:04:14.016Z,9.27
2019-04-28T08:06:46.212Z,7.60
2019-04-28T08:09:19.013Z,10.43
2019-04-28T08:11:51.133Z,7.70
2019-04-28T08:14:23.529Z,9.50
2019-04-28T08:16:55.978Z,9.57
2019-04-28T08:19:28.038Z,8.23
2019-04-28T08:22:00.381Z,10.53
2019-04-28T08:24:32.597Z,8.67
2019-04-28T08:27:04.905Z,8.93
2019-04-28T08:29:37.017Z,10.87
2019-04-28T08:32:33.558Z,9.57
2019-04-28T08:35:05.860Z,8.57
2019-04-28T08:37:37.942Z,9.87
2019-04-28T08:40:10.226Z,13.97
2019-04-28T08:42:42.395Z,11.67
2019-04-28T08:45:14.876Z,12.07
2019-04-28T08:47:47.044Z,12.20
2019-04-28T08:50:19.390Z,14.50
2019-04-28T08:52:51.736Z,14.83
2019-04-28T08:55:23.793Z,16.93
2019-04-28T08:57:55.965Z,17.83
2019-04-28T09:00:28.132Z,19.53
2019-04-28T09:03:00.269Z,19.00
2019-04-28T09:05:33.161Z,18.13
2019-04-28T09:08:06.825Z,20.03
2019-04-28T09:10:38.837Z,20.57
2019-04-28T09:13:10.880Z,18.40
2019-04-28T09:15:42.883Z,23.30
2019-04-28T09:18:15.101Z,25.60
2019-04-28T09:20:47.220Z,23.03
2019-04-28T09:23:19.432Z,21.53
2019-04-28T09:25:51.460Z,19.37
2019-04-28T09:28:23.869Z,19.00
2019-04-28T09:30:56.149Z,25.80
2019-04-28T09:33:28.362Z,30.03
2019-04-28T09:36:00.475Z,27.23
2019-04-28T09:38:32.726Z,25.97
2019-04-28T09:41:04.983Z,26.63
2019-04-28T09:44:11.450Z,24.97
2019-04-28T09:46:44.175Z,21.57
2019-04-28T09:49:16.423Z,25.43
2019-04-28T09:51:48.667Z,14.60
2019-04-28T09:54:20.697Z,8.63
2019-04-28T09:56:57.048Z,8.30
2019-04-28T09:59:26.534Z,7.13
2019-04-28T10:01:58.881Z,9.83
2019-04-28T10:04:41.047Z,8.73
2019-04-28T10:07:04.811Z,8.73
2019-04-28T10:09:37.114Z,9.57
2019-04-28T10:12:09.471Z,9.37
2019-04-28T10:14:41.355Z,13.10
2019-04-28T10:17:13.356Z,13.30
2019-04-28T10:19:45.577Z,14.57
2019-04-28T10:22:17.986Z,16.77
2019-04-28T10:24:50.176Z,8.40
2019-04-28T10:27:22.284Z,8.17
2019-04-28T10:29:54.522Z,9.17
2019-04-28T10:32:26.750Z,11.13
2019-04-28T10:34:58.783Z,12.20
2019-04-28T10:37:30.887Z,10.77
2019-04-28T10:40:07.444Z,9.13
2019-04-28T10:42:39.743Z,11.07
2019-04-28T10:45:13.731Z,8.03
2019-04-28T10:47:46.045Z,7.80
2019-04-28T10:50:18.403Z,7.93
2019-04-28T10:52:50.626Z,8.27
2019-04-28T10:55:22.838Z,12.43
2019-04-28T10:57:54.919Z,7.70
2019-04-28T11:00:29.172Z,9.87
2019-04-28T11:03:01.280Z,8.70
2019-04-28T11:05:43.969Z,6.33
2019-04-28T11:08:29.043Z,10.57
2019-04-28T11:11:04.057Z,8.03
2019-04-28T11:13:36.046Z,8.00
2019-04-28T11:16:08.664Z,7.90
2019-04-28T11:18:41.043Z,7.30
2019-04-28T11:21:13.414Z,7.13
2019-04-28T11:23:45.638Z,6.13
2019-04-28T11:26:17.752Z,6.60
2019-04-28T11:28:50.016Z,5.80
2019-04-28T11:31:22.005Z,6.90
2019-04-28T11:36:46.337Z,6.53
2019-04-28T11:39:22.704Z,7.70
2019-04-28T11:41:54.922Z,7.13
2019-04-28T11:44:27.066Z,6.13
2019-04-28T11:46:59.564Z,5.93
2019-04-28T11:49:31.627Z,5.80
2019-04-28T11:52:03.719Z,6.57
2019-04-28T11:54:36.194Z,6.83
2019-04-28T11:57:08.452Z,7.33
2019-04-28T11:59:40.806Z,7.77
2019-04-28T12:02:13.390Z,7.63
2019-04-28T12:04:45.447Z,7.13
2019-04-28T12:07:17.758Z,7.47
2019-04-28T12:10:04.940Z,9.27
2019-04-28T12:12:53.178Z,7.23
2019-04-28T12:15:35.822Z,6.57
2019-04-28T12:18:38.474Z,8.93
2019-04-28T12:21:11.808Z,15.10
2019-04-28T12:23:45.005Z,6.07
2019-04-28T12:26:17.593Z,6.17
2019-04-28T12:28:49.660Z,5.20
2019-04-28T12:31:21.685Z,5.17
2019-04-28T12:33:53.915Z,5.70
2019-04-28T12:36:26.064Z,4.70
2019-04-28T12:38:58.185Z,8.13
2019-04-28T12:41:30.474Z,8.73
2019-04-28T12:44:02.549Z,8.70
2019-04-28T12:46:34.921Z,7.10
2019-04-28T12:49:17.036Z,21.40
2019-04-28T12:51:49.095Z,8.60
2019-04-28T12:54:23.170Z,7.43
2019-04-28T12:56:55.533Z,7.63
2019-04-28T12:59:33.308Z,9.53
2019-04-28T13:02:11.386Z,8.00
2019-04-28T13:04:47.004Z,7.23
2019-04-28T13:07:19.216Z,6.50
2019-04-28T13:09:51.512Z,6.77
2019-04-28T13:12:23.503Z,6.70
2019-04-28T13:14:55.645Z,5.97
2019-04-28T13:17:29.194Z,5.90
2019-04-28T13:20:01.233Z,6.83
2019-04-28T13:22:34.479Z,6.10
2019-04-28T13:25:06.729Z,6.93
2019-04-28T13:27:38.927Z,7.17
2019-04-28T13:30:11.459Z,7.90
2019-04-28T13:32:43.464Z,7.80
2019-04-28T13:35:16.178Z,8.77
2019-04-28T13:37:48.151Z,8.00
2019-04-28T13:40:25.780Z,9.27
2019-04-28T13:42:57.748Z,11.03
2019-04-28T13:45:29.812Z,10.03
2019-04-28T13:48:01.770Z,9.10
2019-04-28T13:50:38.009Z,8.77
2019-04-28T13:53:10.326Z,7.67
2019-04-28T13:55:59.727Z,10.33
2019-04-28T13:58:40.984Z,9.97
2019-04-28T14:01:31.714Z,9.23
2019-04-28T14:04:28.651Z,16.97
2019-04-28T14:07:02.983Z,8.30
2019-04-28T14:09:35.189Z,8.27
2019-04-28T14:12:07.206Z,8.10
2019-04-28T14:14:39.303Z,8.17
2019-04-28T14:17:11.426Z,7.87
2019-04-28T14:19:43.670Z,8.63
2019-04-28T14:22:16.044Z,8.33
2019-04-28T14:24:48.187Z,8.00
2019-04-28T14:27:20.477Z,10.70
2019-04-28T14:29:52.896Z,8.90
2019-04-28T14:32:25.063Z,9.10
2019-04-28T14:34:57.240Z,8.33
2019-04-28T14:37:30.457Z,8.40
2019-04-28T14:40:02.605Z,7.93
2019-04-28T14:42:36.503Z,8.43
2019-04-28T14:45:10.037Z,10.30
2019-04-28T14:47:42.418Z,7.53
2019-04-28T14:50:14.583Z,8.40
2019-04-28T14:52:46.575Z,7.87
2019-04-28T14:55:18.816Z,9.47
2019-04-28T14:57:51.009Z,13.33
2019-04-28T15:00:28.177Z,12.90
2019-04-28T15:03:05.300Z,10.47
2019-04-28T15:05:54.736Z,11.27
2019-04-28T15:08:54.109Z,10.80
2019-04-28T15:11:34.657Z,12.30
2019-04-28T15:14:07.034Z,10.03
2019-04-28T15:16:39.355Z,12.20
2019-04-28T15:19:11.669Z,12.20
2019-04-28T15:21:43.670Z,10.60
2019-04-28T15:24:16.847Z,10.27
2019-04-28T15:26:49.803Z,12.73
2019-04-28T15:29:21.977Z,14.97
2019-04-28T15:31:54.053Z,14.77
2019-04-28T15:34:26.074Z,26.80
2019-04-28T15:37:09.161Z,24.77
2019-04-28T15:39:31.912Z,18.20
2019-04-28T15:42:04.423Z,26.10
2019-04-28T15:44:36.564Z,33.07
2019-04-28T15:47:09.907Z,23.33
2019-04-28T15:49:42.126Z,13.90
2019-04-28T15:52:14.010Z,11.13
2019-04-28T15:54:45.869Z,9.87
2019-04-28T15:57:17.721Z,9.63
2019-04-28T15:59:50.209Z,18.73
2019-04-28T16:02:22.217Z,15.93
2019-04-28T16:04:54.413Z,15.10
2019-04-28T16:07:26.434Z,13.27
2019-04-28T16:09:58.600Z,15.77
2019-04-28T16:12:30.925Z,12.80
2019-04-28T16:15:03.527Z,10.33
2019-04-28T16:17:35.765Z,10.23
2019-04-28T16:20:07.981Z,11.37
2019-04-28T16:22:40.288Z,21.47
2019-04-28T16:25:12.398Z,23.07
2019-04-28T16:27:44.685Z,24.70
2019-04-28T16:30:16.702Z,21.67
2019-04-28T16:32:48.798Z,15.40
2019-04-28T16:35:20.889Z,16.00
2019-04-28T16:37:52.808Z,14.23
2019-04-28T16:40:30.929Z,16.93
2019-04-28T16:43:09.680Z,27.73
2019-04-28T16:45:42.369Z,41.33
2019-04-28T16:48:14.597Z,35.10
2019-04-28T16:50:47.174Z,29.53
2019-04-28T16:53:19.507Z,25.77
2019-04-28T16:56:13.169Z,24.03
2019-04-28T16:59:13.181Z,19.90
2019-04-28T17:01:51.114Z,20.20
2019-04-28T17:04:23.445Z,18.93
2019-04-28T17:06:55.198Z,15.93
2019-04-28T17:09:27.335Z,20.33
2019-04-28T17:11:59.401Z,19.17
2019-04-28T17:14:31.606Z,17.53
2019-04-28T17:17:03.838Z,16.70
2019-04-28T17:19:36.093Z,27.93
2019-04-28T17:22:08.417Z,25.67
2019-04-28T17:24:40.597Z,23.27
2019-04-28T17:27:12.508Z,31.90
2019-04-28T17:29:44.614Z,23.17
2019-04-28T17:32:17.088Z,28.30
2019-04-28T17:34:49.332Z,23.53
2019-04-28T17:37:21.543Z,23.87
2019-04-28T17:39:53.456Z,29.50
2019-04-28T17:42:25.683Z,34.73
2019-04-28T17:44:57.868Z,32.57
2019-04-28T17:47:29.935Z,24.43
2019-04-28T17:50:01.805Z,20.47
2019-04-28T17:52:35.159Z,17.30
2019-04-28T17:55:07.847Z,15.07
2019-04-28T17:57:40.166Z,11.63
2019-04-28T18:00:24.993Z,11.57
2019-04-28T18:03:04.567Z,14.87
2019-04-28T18:05:43.963Z,17.10
2019-04-28T18:08:21.256Z,13.50
2019-04-28T18:10:49.758Z,19.40
2019-04-28T18:13:21.833Z,16.00
2019-04-28T18:16:15.852Z,18.47
2019-04-28T18:18:56.349Z,18.60
2019-04-28T18:21:28.565Z,16.67
2019-04-28T18:24:00.994Z,19.33
2019-04-28T18:26:32.912Z,20.43
2019-04-28T18:29:05.002Z,21.87
2019-04-28T18:31:58.673Z,33.30
2019-04-28T18:34:45.021Z,35.30
2019-04-28T18:37:41.753Z,42.53
2019-04-28T18:40:27.254Z,44.47
2019-04-28T18:43:06.357Z,44.90
2019-04-28T18:45:38.338Z,41.43
2019-04-28T18:48:10.379Z,39.53
2019-04-28T18:50:42.694Z,40.20
2019-04-28T18:55:55.966Z,45.20
2019-04-28T18:58:28.823Z,45.50
2019-04-28T19:01:22.582Z,51.40
2019-04-28T19:03:54.463Z,47.10
2019-04-28T19:06:26.913Z,52.83
2019-04-28T19:09:04.189Z,52.77
2019-04-28T19:11:48.649Z,54.73
2019-04-28T19:14:24.840Z,55.37
2019-04-28T19:17:15.573Z,46.37
2019-04-28T19:19:48.051Z,42.60
2019-04-28T19:22:20.530Z,42.77
2019-04-28T19:24:53.626Z,38.30
2019-04-28T19:27:25.670Z,38.23
2019-04-28T19:29:57.878Z,39.53
2019-04-28T19:32:30.682Z,41.13
2019-04-28T19:35:02.788Z,47.83
2019-04-28T19:37:36.217Z,55.07
2019-04-28T19:40:08.905Z,73.93
2019-04-28T19:42:41.163Z,54.80
2019-04-28T19:45:14.907Z,51.93
2019-04-28T19:47:47.084Z,52.70
2019-04-28T19:50:19.439Z,51.67
2019-04-28T19:52:51.490Z,43.73
2019-04-28T19:55:28.262Z,38.43
2019-04-28T19:58:20.010Z,37.80
2019-04-28T20:00:55.305Z,32.60
2019-04-28T20:03:27.566Z,26.73
2019-04-28T20:06:00.085Z,23.47
2019-04-28T20:08:32.401Z,23.03
2019-04-28T20:11:04.649Z,23.43
2019-04-28T20:13:36.704Z,25.73
2019-04-28T20:16:08.994Z,21.53
2019-04-28T20:18:41.502Z,22.10
2019-04-28T20:21:14.053Z,24.57
2019-04-28T20:23:46.341Z,25.03
2019-04-28T20:26:18.756Z,43.50
2019-04-28T20:28:50.960Z,25.20
2019-04-28T20:31:23.259Z,26.43
2019-04-28T20:33:55.201Z,31.33
2019-04-28T20:36:43.921Z,34.30
2019-04-28T20:39:22.926Z,31.57
2019-04-28T20:41:54.796Z,42.00
2019-04-28T20:44:26.810Z,37.27
2019-04-28T20:46:58.923Z,36.97
2019-04-28T20:49:31.010Z,42.23
2019-04-28T20:52:03.319Z,37.77
2019-04-28T20:54:35.742Z,36.07
2019-04-28T20:57:07.936Z,35.47
2019-04-28T20:59:39.974Z,36.27
2019-04-28T21:02:12.225Z,42.77
2019-04-28T21:04:44.188Z,39.03
2019-04-28T21:07:16.353Z,39.23
2019-04-28T21:09:48.630Z,47.90
2019-04-28T21:12:21.949Z,56.53
2019-04-28T21:14:54.436Z,52.20
2019-04-28T21:17:26.429Z,48.97
2019-04-28T21:19:58.923Z,51.87
2019-04-28T21:22:30.960Z,64.77
2019-04-28T21:25:02.967Z,59.87
2019-04-28T21:27:34.864Z,56.23
2019-04-28T21:30:07.631Z,66.10
2019-04-28T21:32:39.808Z,67.37
2019-04-28T21:35:12.424Z,59.93
2019-04-28T21:37:45.745Z,62.73
2019-04-28T21:40:18.922Z,69.70
2019-04-28T21:43:15.485Z,73.93
2019-04-28T21:46:06.624Z,66.33
2019-04-28T21:48:46.643Z,65.77
2019-04-28T21:51:18.882Z,49.27
2019-04-28T21:53:51.103Z,42.40
2019-04-28T21:56:23.611Z,40.40
2019-04-28T21:58:55.786Z,34.47
2019-04-28T22:01:28.421Z,32.53
2019-04-28T22:04:00.375Z,28.43
2019-04-28T22:06:37.675Z,25.20
2019-04-28T22:09:10.281Z,29.07
2019-04-28T22:11:43.908Z,26.93
2019-04-28T22:14:16.053Z,25.60
2019-04-28T22:16:48.478Z,28.10
2019-04-28T22:19:20.273Z,27.60
2019-04-28T22:21:52.525Z,31.60
2019-04-28T22:24:44.552Z,31.70
2019-04-28T22:27:22.462Z,33.03
2019-04-28T22:29:54.808Z,31.47
2019-04-28T22:32:27.082Z,32.60
2019-04-28T22:34:59.372Z,26.97
2019-04-28T22:37:31.651Z,31.40
2019-04-28T22:40:04.090Z,29.07
2019-04-28T22:42:36.303Z,28.83
2019-04-28T22:45:10.191Z,28.10
2019-04-28T22:47:42.284Z,26.77
2019-04-28T22:50:37.415Z,29.87
2019-04-28T22:53:09.633Z,29.40
2019-04-28T22:55:50.891Z,30.70
2019-04-28T22:58:39.482Z,35.27
2019-04-28T23:01:32.407Z,43.60
2019-04-28T23:04:30.413Z,57.13
2019-04-28T23:07:02.621Z,55.80
2019-04-28T23:09:34.665Z,52.57
2019-04-28T23:12:06.734Z,52.00
2019-04-28T23:14:38.986Z,53.37
2019-04-28T23:17:13.229Z,44.33
2019-04-28T23:19:45.529Z,45.70
2019-04-28T23:22:45.885Z,42.47
2019-04-28T23:25:07.307Z,42.57
2019-04-28T23:27:39.265Z,43.93
2019-04-28T23:30:11.987Z,43.80
2019-04-28T23:32:44.037Z,46.30
2019-04-28T23:35:16.321Z,45.17
2019-04-28T23:37:48.599Z,42.80
2019-04-28T23:40:20.876Z,42.77
2019-04-28T23:42:57.663Z,38.13
2019-04-28T23:45:30.333Z,41.10
2019-04-28T23:48:02.643Z,37.53
2019-04-28T23:50:44.296Z,41.50
2019-04-28T23:53:18.023Z,44.43
2019-04-28T23:55:50.148Z,39.70
2019-04-28T23:58:22.273Z,43.53
